Time;durP1;ratioP1;P1;durP2;ratioP2;P2;SDS_P1;SDS_P2;PMS_P1;PMS_P2;Temp;Humidity;BMP_temperature;BMP_pressure;BME280_temperature;BME280_humidity;BME280_pressure;Samples;Min_cycle;Max_cycle;Signal;HPM_P1;HPM_P2
2022/12/21 00:02:13;;;;;;;48.83;24.27;;;;;;;7.14;100.00;96368.88;4962669;28;20066;-43
2022/12/21 00:04:43;;;;;;;49.95;25.30;;;;;;;7.15;100.00;96356.59;4965952;28;20070;-43
2022/12/21 00:07:12;;;;;;;53.03;24.80;;;;;;;7.37;100.00;96374.84;4973373;28;20080;-41
2022/12/21 00:09:41;;;;;;;53.50;25.52;;;;;;;7.20;100.00;96358.84;4969553;28;20093;-44
2022/12/21 00:12:09;;;;;;;47.78;24.15;;;;;;;7.42;100.00;96345.59;4973682;28;20077;-41
2022/12/21 00:14:38;;;;;;;45.60;23.52;;;;;;;6.79;100.00;96347.31;4966189;28;20082;-50
2022/12/21 00:17:06;;;;;;;45.58;23.98;;;;;;;6.90;100.00;96355.97;4966458;28;20081;-43
2022/12/21 00:19:35;;;;;;;47.20;23.20;;;;;;;7.17;100.00;96335.50;4963949;28;20121;-42
2022/12/21 00:22:03;;;;;;;45.70;22.40;;;;;;;7.19;100.00;96333.56;4967243;28;20081;-42
2022/12/21 00:24:33;;;;;;;51.22;23.83;;;;;;;7.01;100.00;96341.97;4963761;28;20063;-43
2022/12/21 00:27:01;;;;;;;43.93;23.07;;;;;;;7.32;100.00;96339.47;4961706;28;20379;-44
2022/12/21 00:29:30;;;;;;;46.97;23.83;;;;;;;7.12;100.00;96336.72;4964287;28;20532;-46
2022/12/21 00:31:59;;;;;;;47.05;24.20;;;;;;;7.24;100.00;96341.91;4966092;28;20074;-42
2022/12/21 00:34:27;;;;;;;47.15;24.20;;;;;;;6.81;100.00;96354.13;4963485;28;20447;-42
2022/12/21 00:36:56;;;;;;;48.08;24.85;;;;;;;7.29;100.00;96350.19;4962941;28;20066;-45
2022/12/21 00:39:24;;;;;;;49.80;24.20;;;;;;;7.45;100.00;96352.41;4962500;28;20088;-41
2022/12/21 00:41:54;;;;;;;53.47;25.70;;;;;;;7.67;100.00;96349.63;4964550;28;20592;-42
2022/12/21 00:44:23;;;;;;;49.13;25.00;;;;;;;7.57;100.00;96356.59;4964218;28;20077;-41
2022/12/21 00:46:51;;;;;;;45.60;23.15;;;;;;;7.56;100.00;96341.81;4964628;28;21086;-43
2022/12/21 00:49:20;;;;;;;45.40;24.00;;;;;;;7.59;100.00;96337.16;4982555;28;20070;-49
2022/12/21 00:51:53;;;;;;;45.17;22.58;;;;;;;7.53;100.00;96337.66;4959844;28;20078;-43
2022/12/21 00:54:22;;;;;;;44.60;23.30;;;;;;;7.41;100.00;96330.84;4968084;28;20070;-42
2022/12/21 00:56:50;;;;;;;44.00;24.35;;;;;;;7.51;100.00;96344.03;4963289;28;20082;-43
2022/12/21 00:59:20;;;;;;;51.85;23.30;;;;;;;7.55;100.00;96341.00;4965279;28;20467;-46
2022/12/21 01:01:48;;;;;;;46.63;24.13;;;;;;;7.42;100.00;96340.34;4960549;28;20109;-46
2022/12/21 01:04:17;;;;;;;46.30;23.45;;;;;;;7.41;100.00;96340.50;4964336;28;20508;-42
2022/12/21 01:06:45;;;;;;;46.78;22.85;;;;;;;7.36;100.00;96346.09;4959698;28;20070;-42
2022/12/21 01:09:14;;;;;;;47.72;23.63;;;;;;;7.42;100.00;96345.59;4962738;28;20074;-42
2022/12/21 01:11:42;;;;;;;48.47;23.75;;;;;;;7.52;100.00;96361.41;4965049;28;20074;-40
2022/12/21 01:14:10;;;;;;;46.38;23.70;;;;;;;7.43;100.00;96355.13;4962549;28;20066;-47
2022/12/21 01:16:40;;;;;;;47.25;23.80;;;;;;;7.45;100.00;96370.75;4964363;28;20464;-43
2022/12/21 01:19:09;;;;;;;44.00;23.53;;;;;;;7.53;100.00;96379.63;4963270;28;20089;-47
2022/12/21 01:21:38;;;;;;;49.88;24.58;;;;;;;7.28;100.00;96385.25;4964657;28;20513;-46
2022/12/21 01:24:07;;;;;;;49.80;25.35;;;;;;;7.35;100.00;96375.94;4965443;28;20075;-42
2022/12/21 01:26:35;;;;;;;50.00;23.98;;;;;;;7.44;100.00;96372.56;4963471;28;20515;-43
2022/12/21 01:29:04;;;;;;;47.42;23.75;;;;;;;7.42;100.00;96373.63;4962305;28;20449;-42
2022/12/21 01:31:32;;;;;;;45.40;23.27;;;;;;;7.31;100.00;96367.47;4964903;28;20109;-47
2022/12/21 01:34:02;;;;;;;47.97;23.90;;;;;;;7.30;100.00;96368.44;4963399;28;20081;-42
2022/12/21 01:36:30;;;;;;;47.45;25.73;;;;;;;7.32;100.00;96358.66;4966376;28;20161;-41
2022/12/21 01:38:59;;;;;;;47.97;24.77;;;;;;;7.25;100.00;96356.66;4963009;28;20071;-41
2022/12/21 01:41:28;;;;;;;49.67;24.80;;;;;;;6.87;100.00;96350.97;4961915;28;20070;-40
2022/12/21 01:43:59;;;;;;;49.03;24.27;;;;;;;6.70;100.00;96346.25;4960042;28;20066;-41
2022/12/21 01:46:31;;;;;;;44.67;22.70;;;;;;;6.83;100.00;96348.72;4965064;28;20071;-46
2022/12/21 01:49:04;;;;;;;45.75;23.65;;;;;;;6.96;100.00;96332.84;4976962;28;20089;-41
2022/12/21 01:51:35;;;;;;;48.13;23.77;;;;;;;7.16;100.00;96344.31;4960949;28;20083;-41
2022/12/21 01:54:07;;;;;;;46.78;22.80;;;;;;;7.28;100.00;96348.53;4964009;28;20410;-43
2022/12/21 01:56:37;;;;;;;49.80;24.52;;;;;;;7.08;100.00;96356.25;4961265;28;20081;-46
2022/12/21 01:59:09;;;;;;;46.78;22.88;;;;;;;7.12;100.00;96351.59;4964137;28;20078;-41
2022/12/21 02:01:38;;;;;;;48.58;23.08;;;;;;;7.34;100.00;96354.13;4963147;28;20074;-42
2022/12/21 02:04:08;;;;;;;44.97;22.48;;;;;;;7.35;100.00;96347.06;4964962;28;20105;-48
2022/12/21 02:06:40;;;;;;;50.03;23.65;;;;;;;7.35;100.00;96340.03;4966735;28;20109;-44
2022/12/21 02:09:08;;;;;;;42.40;22.10;;;;;;;7.44;100.00;96335.00;4967209;28;20090;-44
2022/12/21 02:11:37;;;;;;;44.22;23.17;;;;;;;7.25;100.00;96338.31;4963758;28;20078;-41
2022/12/21 02:14:11;;;;;;;48.45;24.52;;;;;;;7.32;100.00;96332.41;4963437;28;20074;-48
2022/12/21 02:16:45;;;;;;;47.42;23.17;;;;;;;7.47;100.00;96327.69;4961662;28;20078;-44
2022/12/21 02:22:14;;;;;;;46.65;22.38;;;;;;;7.54;100.00;96326.22;5074372;27;21006;-45
2022/12/21 02:25:03;;;;;;;45.13;21.90;;;;;;;7.22;100.00;96312.31;5069802;28;20511;-41
2022/12/21 02:28:06;;;;;;;47.65;22.23;;;;;;;7.10;100.00;96314.19;5072878;28;20080;-39
2022/12/21 02:30:59;;;;;;;47.40;21.80;;;;;;;7.13;100.00;96304.28;5072369;28;20135;-44
2022/12/21 02:33:40;;;;;;;42.08;21.60;;;;;;;7.01;100.00;96310.53;5069842;28;20080;-48
2022/12/21 02:36:20;;;;;;;44.33;22.02;;;;;;;7.08;100.00;96313.47;5069853;28;20854;-47
2022/12/21 02:38:52;;;;;;;48.60;21.85;;;;;;;7.13;100.00;96312.16;5066461;28;20481;-44
2022/12/21 02:41:30;;;;;;;48.47;23.10;;;;;;;7.12;100.00;96312.25;5072013;28;20080;-46
2022/12/21 02:44:14;;;;;;;45.47;22.95;;;;;;;6.87;100.00;96323.94;5073223;28;20176;-42
2022/12/21 02:46:54;;;;;;;45.17;22.60;;;;;;;7.10;100.00;96341.25;5071440;28;20083;-43
2022/12/21 02:49:23;;;;;;;;;;;;;;;7.06;100.00;96336.38;5073314;28;20072;-43
2022/12/21 02:51:58;;;;;;;45.30;22.10;;;;;;;7.44;100.00;96345.50;5069024;28;19964;-44
2022/12/21 02:54:26;;;;;;;45.38;22.63;;;;;;;7.52;100.00;96348.28;5067918;28;20464;-50
2022/12/21 02:56:54;;;;;;;46.95;22.67;;;;;;;7.70;100.00;96348.53;5068466;28;20068;-46
2022/12/21 02:59:26;;;;;;;45.78;22.63;;;;;;;7.59;100.00;96349.44;5069060;28;20075;-42
2022/12/21 03:02:24;;;;;;;44.33;22.20;;;;;;;7.68;100.00;96356.56;5067751;28;20134;-43
2022/12/21 03:05:12;;;;;;;43.08;22.70;;;;;;;7.86;100.00;96356.78;5065210;28;20095;-40
2022/12/21 03:07:50;;;;;;;47.85;22.88;;;;;;;7.98;100.00;96349.63;5066555;28;20086;-40
2022/12/21 03:10:26;;;;;;;44.88;22.15;;;;;;;8.05;100.00;96348.16;5067642;28;20080;-42
2022/12/21 03:13:01;;;;;;;42.42;21.65;;;;;;;8.06;100.00;96350.66;5066264;28;20081;-46
2022/12/21 03:15:46;;;;;;;43.20;22.23;;;;;;;7.97;100.00;96358.50;5067814;28;20044;-47
2022/12/21 03:18:22;;;;;;;41.75;20.50;;;;;;;7.90;100.00;96360.81;5067246;28;20084;-40
2022/12/21 03:20:57;;;;;;;42.50;21.98;;;;;;;7.92;100.00;96351.03;5068837;28;20534;-49
2022/12/21 03:23:30;;;;;;;43.53;21.33;;;;;;;7.88;100.00;96349.63;5069699;28;20072;-41
2022/12/21 03:26:02;;;;;;;42.97;22.20;;;;;;;7.93;100.00;96351.84;5067082;28;20088;-45
2022/12/21 03:28:33;;;;;;;43.50;22.42;;;;;;;7.87;100.00;96355.00;5069396;28;20084;-48
2022/12/21 03:31:05;;;;;;;41.78;21.90;;;;;;;7.93;100.00;96357.09;5066905;28;20072;-40
2022/12/21 03:33:38;;;;;;;45.78;22.55;;;;;;;7.96;100.00;96343.72;5053130;28;20091;-46
2022/12/21 03:36:11;;;;;;;38.45;21.58;;;;;;;7.83;100.00;96347.38;5049565;28;20091;-45
2022/12/21 03:38:43;;;;;;;43.45;22.88;;;;;;;7.97;100.00;96335.69;5053518;28;20095;-47
2022/12/21 03:41:15;;;;;;;41.30;20.65;;;;;;;7.75;100.00;96339.31;5058463;28;20614;-41
2022/12/21 03:43:43;;;;;;;42.15;20.80;;;;;;;7.97;100.00;96345.38;5056360;28;20091;-43
2022/12/21 03:46:16;;;;;;;41.25;20.95;;;;;;;8.11;100.00;96338.94;5053627;28;20065;-44
2022/12/21 03:48:49;;;;;;;38.65;21.35;;;;;;;8.17;100.00;96331.34;5056319;28;20087;-45
2022/12/21 03:51:21;;;;;;;44.03;22.52;;;;;;;8.23;100.00;96338.72;5054139;28;20072;-47
2022/12/21 03:53:51;;;;;;;44.00;22.35;;;;;;;8.17;100.00;96325.28;5054598;28;20476;-43
2022/12/21 03:56:23;;;;;;;42.15;22.38;;;;;;;8.05;100.00;96325.38;5052709;28;20098;-40
2022/12/21 03:58:51;;;;;;;42.00;22.38;;;;;;;8.19;100.00;96332.06;5055411;28;20084;-44
2022/12/21 04:01:24;;;;;;;38.95;19.55;;;;;;;8.15;100.00;96328.00;5054009;28;20072;-40
2022/12/21 04:03:58;;;;;;;41.42;20.73;;;;;;;8.13;100.00;96329.13;5051758;28;20056;-47
2022/12/21 04:06:28;;;;;;;45.13;21.60;;;;;;;8.11;100.00;96326.63;5053328;28;20516;-46
2022/12/21 04:08:57;;;;;;;;;;;;;;;8.03;100.00;96331.72;5060906;28;20075;-43
2022/12/21 04:14:11;;;;;;;36.45;20.20;;;;;;;7.87;100.00;96318.22;5056556;28;20088;-44
2022/12/21 04:16:39;;;;;;;41.05;20.98;;;;;;;7.80;100.00;96313.50;5058159;28;20087;-41
2022/12/21 04:22:01;;;;;;;38.60;19.70;;;;;;;8.16;100.00;96313.94;5052476;28;20084;-46
2022/12/21 04:30:01;;;;;;;42.35;22.00;;;;;;;8.26;100.00;96319.22;5054511;28;20079;-40
2022/12/21 04:32:29;;;;;;;40.60;21.13;;;;;;;7.65;100.00;96306.94;5053622;28;20123;-50
2022/12/21 04:34:59;;;;;;;41.60;20.90;;;;;;;7.96;100.00;96320.06;5053314;28;20163;-45
2022/12/21 04:37:34;;;;;;;37.58;20.52;;;;;;;7.80;100.00;96325.78;5051085;28;20096;-41
2022/12/21 04:40:03;;;;;;;40.92;21.27;;;;;;;8.12;100.00;96320.44;5053801;28;20076;-43
2022/12/21 04:42:31;;;;;;;39.22;20.38;;;;;;;8.09;100.00;96313.63;5053733;28;20131;-42
2022/12/21 04:44:59;;;;;;;41.38;20.50;;;;;;;8.21;100.00;96324.03;5050163;28;20080;-40
2022/12/21 04:47:28;;;;;;;39.60;20.90;;;;;;;8.27;100.00;96315.63;5052283;28;20150;-44
2022/12/21 04:49:56;;;;;;;41.63;20.58;;;;;;;8.39;100.00;96322.44;5055353;28;20084;-47
2022/12/21 04:52:26;;;;;;;42.00;20.80;;;;;;;8.47;100.00;96313.91;5054453;28;20079;-43
2022/12/21 04:54:54;;;;;;;37.47;20.47;;;;;;;8.46;100.00;96314.84;5056958;28;20500;-43
2022/12/21 04:57:22;;;;;;;36.30;19.52;;;;;;;8.47;100.00;96316.53;5053691;28;20536;-49
2022/12/21 04:59:51;;;;;;;41.35;20.55;;;;;;;8.47;100.00;96322.63;5053760;28;20088;-46
2022/12/21 05:02:19;;;;;;;39.15;20.75;;;;;;;8.47;100.00;96321.81;5050674;28;20065;-48
2022/12/21 05:04:47;;;;;;;40.63;21.02;;;;;;;8.59;100.00;96323.34;5050470;28;20083;-44
2022/12/21 05:07:17;;;;;;;33.90;19.45;;;;;;;8.62;100.00;96324.88;5055339;28;20090;-43
2022/12/21 05:09:46;;;;;;;39.20;21.42;;;;;;;8.53;100.00;96318.59;5051821;28;20080;-47
2022/12/21 05:12:14;;;;;;;41.27;22.10;;;;;;;8.54;100.00;96323.75;5054414;28;20111;-40
2022/12/21 05:14:43;;;;;;;32.90;19.05;;;;;;;8.47;100.00;96314.75;5055591;28;20098;-42
2022/12/21 05:17:11;;;;;;;41.33;21.45;;;;;;;8.76;100.00;96319.22;5055767;28;20134;-40
2022/12/21 05:19:39;;;;;;;35.42;19.92;;;;;;;8.77;100.00;96308.56;5055479;28;20558;-43
2022/12/21 05:22:08;;;;;;;36.47;19.02;;;;;;;8.84;100.00;96315.88;5056612;28;20089;-44
2022/12/21 05:24:36;;;;;;;32.35;19.25;;;;;;;8.73;100.00;96311.59;5054013;28;20080;-43
2022/12/21 05:27:06;;;;;;;34.22;19.50;;;;;;;8.73;100.00;96311.59;5053189;28;20084;-40
2022/12/21 05:29:34;;;;;;;37.23;20.73;;;;;;;8.64;100.00;96310.63;5051640;28;20083;-45
2022/12/21 05:32:03;;;;;;;39.78;20.20;;;;;;;8.56;100.00;96308.66;5057449;28;20486;-43
2022/12/21 05:34:32;;;;;;;38.95;20.60;;;;;;;8.48;100.00;96311.13;5060841;28;20095;-44
2022/12/21 05:37:00;;;;;;;38.28;20.13;;;;;;;8.53;100.00;96310.72;5048499;28;20095;-41
2022/12/21 05:39:29;;;;;;;40.22;22.00;;;;;;;8.48;100.00;96305.88;5054389;28;20564;-43
2022/12/21 05:41:57;;;;;;;39.10;20.88;;;;;;;8.13;100.00;96308.94;5059281;28;20087;-43
2022/12/21 05:44:27;;;;;;;41.63;21.15;;;;;;;8.42;100.00;96310.84;5060156;28;20079;-41
2022/12/21 05:46:55;;;;;;;37.20;20.33;;;;;;;8.48;100.00;96313.78;5053485;28;20099;-42
2022/12/21 05:49:23;;;;;;;38.55;19.90;;;;;;;8.48;100.00;96321.66;5061934;28;20468;-44
2022/12/21 05:51:53;;;;;;;38.00;19.95;;;;;;;8.32;100.00;96323.94;5058226;28;20856;-40
2022/12/21 05:54:21;;;;;;;41.45;20.95;;;;;;;8.43;100.00;96318.63;5049266;28;20080;-47
2022/12/21 05:56:49;;;;;;;42.17;22.23;;;;;;;8.29;100.00;96319.78;5052781;28;20544;-41
2022/12/21 05:59:18;;;;;;;38.47;21.15;;;;;;;8.36;100.00;96321.84;5050780;28;20083;-43
2022/12/21 06:01:47;;;;;;;39.80;21.75;;;;;;;8.32;100.00;96327.38;5046846;28;20485;-41
2022/12/21 06:04:16;;;;;;;39.37;21.40;;;;;;;8.36;100.00;96332.38;5053195;28;20088;-51
2022/12/21 06:06:46;;;;;;;40.08;20.85;;;;;;;7.80;100.00;96331.03;5050228;28;20924;-44
2022/12/21 06:09:14;;;;;;;41.97;21.52;;;;;;;7.83;100.00;96320.28;5050890;28;20088;-50
2022/12/21 06:11:43;;;;;;;39.63;20.55;;;;;;;7.80;100.00;96334.50;5046520;28;20136;-40
2022/12/21 06:14:12;;;;;;;38.83;21.75;;;;;;;8.00;100.00;96324.09;5051982;28;20072;-40
2022/12/21 06:16:40;;;;;;;40.72;21.80;;;;;;;7.59;100.00;96328.44;5052000;28;20079;-47
2022/12/21 06:19:11;;;;;;;42.85;22.00;;;;;;;7.85;100.00;96323.63;5051683;28;20103;-48
2022/12/21 06:21:39;;;;;;;46.30;22.40;;;;;;;8.08;100.00;96319.00;5048235;28;20614;-41
2022/12/21 06:24:08;;;;;;;39.90;21.35;;;;;;;7.72;100.00;96330.88;5053209;28;20597;-44
2022/12/21 06:26:36;;;;;;;42.05;21.60;;;;;;;8.26;100.00;96325.31;5043482;28;20511;-51
2022/12/21 06:29:14;;;;;;;42.50;22.02;;;;;;;8.27;100.00;96320.88;5055163;28;20087;-45
2022/12/21 06:31:42;;;;;;;42.75;22.05;;;;;;;8.27;100.00;96319.09;5051467;28;20088;-41
2022/12/21 06:34:12;;;;;;;44.97;23.15;;;;;;;8.35;100.00;96325.47;5049891;28;20469;-40
2022/12/21 06:36:40;;;;;;;48.15;24.45;;;;;;;8.37;100.00;96327.00;5050290;28;20103;-44
2022/12/21 06:39:09;;;;;;;42.85;22.90;;;;;;;8.38;100.00;96325.22;5056243;28;20505;-40
2022/12/21 06:41:37;;;;;;;38.92;21.95;;;;;;;8.35;100.00;96318.41;5051547;28;20099;-43
2022/12/21 06:44:05;;;;;;;40.45;22.15;;;;;;;8.35;100.00;96322.84;5055109;28;20079;-45
2022/12/21 06:46:33;;;;;;;41.53;22.02;;;;;;;7.99;100.00;96322.44;5052207;28;20091;-52
2022/12/21 06:49:02;;;;;;;37.88;19.80;;;;;;;7.72;100.00;96336.13;5051796;28;20084;-41
2022/12/21 06:51:32;;;;;;;38.00;20.27;;;;;;;7.99;100.00;96323.28;5050251;28;20550;-46
2022/12/21 06:54:00;;;;;;;50.13;22.00;;;;;;;8.22;100.00;96329.13;5052642;28;20072;-43
2022/12/21 06:56:32;;;;;;;42.72;23.33;;;;;;;8.34;100.00;96329.88;5050670;28;20068;-44
2022/12/21 06:59:00;;;;;;;40.40;21.30;;;;;;;8.45;100.00;96328.97;5051495;28;20079;-47
2022/12/21 07:01:30;;;;;;;41.97;21.80;;;;;;;8.51;100.00;96328.44;5047649;28;20481;-42
2022/12/21 07:03:59;;;;;;;51.28;26.15;;;;;;;8.44;100.00;96337.84;5046713;28;20088;-45
2022/12/21 07:06:29;;;;;;;50.55;25.50;;;;;;;8.21;100.00;96331.91;5052137;28;20076;-41
2022/12/21 07:08:59;;;;;;;42.88;22.73;;;;;;;8.24;100.00;96334.28;5055520;28;20813;-41
2022/12/21 07:11:30;;;;;;;40.15;21.95;;;;;;;8.46;100.00;96333.25;5056436;28;20087;-42
2022/12/21 07:13:58;;;;;;;41.65;21.85;;;;;;;8.48;100.00;96336.59;5057354;28;20112;-46
2022/12/21 07:16:26;;;;;;;39.45;22.38;;;;;;;8.61;100.00;96331.91;5052581;28;20087;-40
2022/12/21 07:18:55;;;;;;;38.80;20.85;;;;;;;8.06;100.00;96332.28;5053146;28;20671;-41
2022/12/21 07:21:24;;;;;;;29.42;17.20;;;;;;;8.17;100.00;96333.16;5052129;28;20088;-44
2022/12/21 07:23:52;;;;;;;28.52;17.10;;;;;;;8.40;100.00;96333.81;5057073;28;20091;-42
2022/12/21 07:26:23;;;;;;;50.58;23.08;;;;;;;8.13;100.00;96335.22;5053483;28;20114;-44
2022/12/21 07:28:52;;;;;;;33.80;16.35;;;;;;;8.53;100.00;96331.75;5057324;28;20085;-46
2022/12/21 07:31:22;;;;;;;36.70;17.88;;;;;;;7.99;100.00;96328.53;5052513;28;20068;-41
2022/12/21 07:33:51;;;;;;;28.50;14.88;;;;;;;8.35;100.00;96330.72;5052830;28;20080;-44
2022/12/21 07:36:20;;;;;;;25.38;13.02;;;;;;;8.73;100.00;96335.25;5051042;28;20462;-41
2022/12/21 07:38:48;;;;;;;25.70;12.73;;;;;;;8.87;100.00;96331.41;5053572;28;20476;-47
2022/12/21 07:41:17;;;;;;;23.70;11.15;;;;;;;8.86;100.00;96329.75;5054873;28;20057;-49
2022/12/21 07:43:47;;;;;;;13.88;8.43;;;;;;;8.92;100.00;96342.34;5056599;28;20068;-42
2022/12/21 07:46:17;;;;;;;17.50;8.40;;;;;;;8.82;100.00;96337.06;5048875;28;20079;-42
2022/12/21 07:48:45;;;;;;;16.23;6.90;;;;;;;8.94;100.00;96340.41;5052853;28;20065;-41
2022/12/21 07:51:14;;;;;;;10.68;6.53;;;;;;;8.31;100.00;96344.13;5056011;28;20083;-44
2022/12/21 07:53:42;;;;;;;10.95;6.50;;;;;;;9.02;100.00;96337.94;5052374;28;20084;-45
2022/12/21 07:56:13;;;;;;;10.50;6.70;;;;;;;8.85;100.00;96339.44;5057751;28;20096;-42
2022/12/21 07:58:41;;;;;;;11.65;5.60;;;;;;;9.17;100.00;96336.53;5053100;28;20072;-46
2022/12/21 08:01:12;;;;;;;12.43;6.00;;;;;;;9.06;100.00;96341.94;5053945;28;20079;-44
2022/12/21 08:03:42;;;;;;;18.40;10.23;;;;;;;9.57;100.00;96339.97;5051000;28;20076;-43
2022/12/21 08:06:11;;;;;;;97.35;47.17;;;;;;;9.78;100.00;96334.53;5057493;28;20073;-43
2022/12/21 08:08:39;;;;;;;49.85;27.73;;;;;;;9.48;100.00;96339.81;5056730;28;20102;-47
2022/12/21 08:11:11;;;;;;;41.28;24.80;;;;;;;9.75;100.00;96331.19;5055396;28;20093;-42
2022/12/21 08:13:41;;;;;;;27.65;14.98;;;;;;;10.00;100.00;96326.25;5054487;28;20088;-45
2022/12/21 08:16:12;;;;;;;18.20;8.50;;;;;;;9.86;100.00;96332.81;5059060;28;20095;-41
2022/12/21 08:18:41;;;;;;;17.73;7.47;;;;;;;10.21;100.00;96328.66;5054836;28;20084;-43
2022/12/21 08:21:09;;;;;;;11.02;6.68;;;;;;;10.31;100.00;96326.03;5067387;28;20080;-43
2022/12/21 08:23:38;;;;;;;20.98;10.43;;;;;;;10.53;100.00;96324.78;5056141;28;20476;-49
2022/12/21 08:26:10;;;;;;;29.52;14.10;;;;;;;10.59;100.00;96329.47;5053368;28;20080;-41
2022/12/21 08:28:38;;;;;;;28.48;14.63;;;;;;;10.47;100.00;96320.94;5051209;28;20083;-45
2022/12/21 08:31:09;;;;;;;28.67;14.52;;;;;;;10.56;100.00;96320.03;5053929;28;20492;-42
2022/12/21 08:33:41;;;;;;;18.75;11.98;;;;;;;10.76;100.00;96330.47;5051864;28;20084;-42
2022/12/21 08:36:10;;;;;;;16.98;10.25;;;;;;;10.61;100.00;96328.34;5057740;28;20087;-42
2022/12/21 08:38:38;;;;;;;18.23;11.02;;;;;;;10.73;100.00;96320.22;5056872;28;20080;-42
2022/12/21 08:41:27;;;;;;;14.57;8.25;;;;;;;10.38;100.00;96319.19;5053468;28;20235;-42
2022/12/21 08:43:55;;;;;;;13.20;7.47;;;;;;;10.51;100.00;96319.66;5057184;28;20096;-47
2022/12/21 08:46:23;;;;;;;13.80;6.20;;;;;;;10.61;100.00;96322.25;5065381;28;20084;-45
2022/12/21 08:48:53;;;;;;;9.45;5.80;;;;;;;10.77;100.00;96318.94;5054487;28;20080;-41
2022/12/21 08:51:22;;;;;;;9.63;5.38;;;;;;;10.76;100.00;96317.28;5051569;28;20072;-42
2022/12/21 08:53:50;;;;;;;9.98;5.20;;;;;;;10.68;100.00;96318.88;5049594;28;20069;-41
2022/12/21 08:56:20;;;;;;;9.10;5.10;;;;;;;10.99;100.00;96317.69;5055819;28;20088;-45
2022/12/21 08:58:49;;;;;;;10.35;5.07;;;;;;;11.02;100.00;96322.69;5059149;28;20090;-49
2022/12/21 09:01:20;;;;;;;8.43;4.93;;;;;;;10.96;100.00;96321.47;5050598;28;20528;-42
2022/12/21 09:03:49;;;;;;;13.68;5.28;;;;;;;11.12;100.00;96326.91;5057272;28;20092;-41
2022/12/21 09:06:19;;;;;;;10.90;5.85;;;;;;;11.04;100.00;96326.78;5053267;28;20613;-42
2022/12/21 09:08:48;;;;;;;10.13;5.82;;;;;;;10.89;100.00;96325.69;5064829;28;20110;-46
2022/12/21 09:11:19;;;;;;;9.77;4.93;;;;;;;10.94;100.00;96326.03;5051054;28;20076;-47
2022/12/21 09:13:56;;;;;;;11.77;5.13;;;;;;;11.19;100.00;96327.13;5064580;28;20080;-48
2022/12/21 09:16:25;;;;;;;7.43;5.32;;;;;;;11.02;100.00;96325.31;5059534;28;20076;-46
2022/12/21 09:18:54;;;;;;;7.10;4.85;;;;;;;10.71;100.00;96330.13;5051664;28;20081;-44
2022/12/21 09:21:24;;;;;;;6.40;4.05;;;;;;;10.73;100.00;96328.13;5058029;28;20480;-42
2022/12/21 09:23:52;;;;;;;10.90;4.43;;;;;;;11.10;100.00;96330.66;5053314;28;20513;-42
2022/12/21 09:26:21;;;;;;;9.57;4.30;;;;;;;10.75;100.00;96327.03;5053044;28;20320;-41
2022/12/21 09:28:49;;;;;;;6.70;4.70;;;;;;;10.67;100.00;96326.94;5058122;28;20087;-45
2022/12/21 09:31:19;;;;;;;9.18;5.10;;;;;;;11.24;100.00;96324.84;5052962;28;20078;-45
2022/12/21 09:33:53;;;;;;;10.15;4.80;;;;;;;11.33;100.00;96318.66;5058365;28;20072;-41
2022/12/21 09:36:24;;;;;;;9.68;3.90;;;;;;;11.33;100.00;96317.84;5061247;28;20084;-42
2022/12/21 09:38:54;;;;;;;9.68;4.32;;;;;;;11.29;100.00;96316.47;5053542;28;20084;-48
2022/12/21 09:41:34;;;;;;;9.98;3.83;;;;;;;11.48;100.00;96313.66;5051815;28;20544;-41
2022/12/21 09:44:12;;;;;;;9.23;4.40;;;;;;;11.78;100.00;96307.09;5059120;28;20091;-42
2022/12/21 09:46:42;;;;;;;7.65;3.88;;;;;;;12.05;100.00;96300.84;5054969;28;20084;-49
2022/12/21 09:49:16;;;;;;;10.15;4.45;;;;;;;11.73;100.00;96308.53;5060136;28;20077;-41
2022/12/21 09:51:51;;;;;;;12.75;3.78;;;;;;;11.71;100.00;96297.31;5051480;28;20081;-45
2022/12/21 09:54:23;;;;;;;7.40;3.67;;;;;;;12.39;100.00;96292.06;5055659;28;20081;-41
2022/12/21 09:56:54;;;;;;;11.52;5.38;;;;;;;12.11;100.00;96288.78;5050046;28;20099;-41
2022/12/21 09:59:23;;;;;;;8.00;4.93;;;;;;;12.41;100.00;96279.50;5049972;28;20080;-46
2022/12/21 10:01:58;;;;;;;7.43;4.60;;;;;;;12.62;100.00;96284.34;5052655;28;20453;-41
2022/12/21 10:04:38;;;;;;;8.82;4.57;;;;;;;12.51;100.00;96282.00;5048968;28;20518;-42
2022/12/21 10:07:57;;;;;;;9.43;3.97;;;;;;;12.68;100.00;96282.88;5058547;28;20076;-43
2022/12/21 10:10:31;;;;;;;7.33;4.47;;;;;;;12.75;100.00;96284.72;5051087;28;20069;-42
2022/12/21 10:13:04;;;;;;;8.73;4.30;;;;;;;12.94;100.00;96286.25;5063005;28;20084;-47
2022/12/21 10:15:45;;;;;;;20.98;12.70;;;;;;;13.09;100.00;96278.47;5055147;28;20064;-43
2022/12/21 10:18:20;;;;;;;12.50;7.40;;;;;;;13.09;100.00;96275.00;5057396;28;20084;-44
2022/12/21 10:20:54;;;;;;;6.63;4.20;;;;;;;12.66;100.00;96285.66;5053607;28;20081;-41
2022/12/21 10:23:25;;;;;;;7.60;4.03;;;;;;;13.27;100.00;96283.63;5051953;28;20073;-44
2022/12/21 10:25:56;;;;;;;6.32;3.38;;;;;;;12.72;100.00;96294.78;5062835;28;20083;-47
2022/12/21 10:28:40;;;;;;;8.77;4.15;;;;;;;13.05;100.00;96296.50;5052911;28;20065;-43
2022/12/21 10:31:09;;;;;;;5.75;3.65;;;;;;;12.86;100.00;96293.34;5048486;28;20587;-45
2022/12/21 10:33:41;;;;;;;12.43;5.00;;;;;;;12.75;100.00;96289.19;5053033;28;20096;-47
2022/12/21 10:36:15;;;;;;;8.23;4.25;;;;;;;13.32;100.00;96286.63;5056036;28;20083;-41
2022/12/21 10:38:45;;;;;;;8.13;4.53;;;;;;;13.53;100.00;96279.00;5048354;28;20652;-46
2022/12/21 10:41:16;;;;;;;6.50;4.60;;;;;;;13.52;100.00;96282.66;5055642;28;20095;-46
2022/12/21 10:43:48;;;;;;;10.77;6.68;;;;;;;13.15;100.00;96283.13;5062189;28;20476;-45
2022/12/21 10:46:18;;;;;;;11.60;7.40;;;;;;;13.34;100.00;96281.97;5052168;28;20072;-42
2022/12/21 10:48:47;;;;;;;8.25;4.38;;;;;;;13.32;100.00;96276.03;5057103;28;20069;-41
2022/12/21 10:51:24;;;;;;;8.82;3.88;;;;;;;13.11;100.00;96273.00;5057300;28;20087;-48
2022/12/21 10:54:00;;;;;;;10.88;4.32;;;;;;;13.07;100.00;96270.72;5054237;28;20084;-43
2022/12/21 10:56:30;;;;;;;10.70;4.75;;;;;;;13.47;100.00;96266.41;5056335;28;20087;-47
2022/12/21 10:59:05;;;;;;;11.82;4.53;;;;;;;13.73;100.00;96266.22;5054018;28;20084;-42
2022/12/21 11:01:34;;;;;;;9.82;4.85;;;;;;;13.51;100.00;96262.44;5060420;28;20111;-45
2022/12/21 11:04:12;;;;;;;10.80;4.97;;;;;;;13.76;100.00;96249.13;5052959;28;20736;-41
2022/12/21 11:06:40;;;;;;;10.52;6.55;;;;;;;13.48;100.00;96259.28;5062037;28;20072;-46
2022/12/21 11:09:29;;;;;;;15.73;7.90;;;;;;;13.72;100.00;96250.47;5055517;28;20087;-41
2022/12/21 11:11:57;;;;;;;9.68;4.63;;;;;;;13.61;100.00;96248.19;5064460;28;20084;-41
2022/12/21 11:14:25;;;;;;;8.13;4.20;;;;;;;13.68;100.00;96243.84;5054503;28;20611;-41
2022/12/21 11:17:00;;;;;;;10.23;4.75;;;;;;;13.69;100.00;96248.16;5051080;28;20087;-45
2022/12/21 11:19:34;;;;;;;9.05;4.45;;;;;;;13.49;100.00;96250.38;5058678;28;20466;-45
2022/12/21 11:22:07;;;;;;;8.38;4.65;;;;;;;13.63;100.00;96248.84;5055465;28;20158;-41
2022/12/21 11:24:58;;;;;;;10.88;5.15;;;;;;;13.89;100.00;96245.94;5062591;28;20080;-45
2022/12/21 11:27:28;;;;;;;9.80;5.15;;;;;;;13.85;100.00;96237.53;5055130;28;20504;-41
2022/12/21 11:29:58;;;;;;;9.07;5.10;;;;;;;14.23;100.00;96229.75;5059746;28;20627;-40
2022/12/21 11:32:28;;;;;;;8.32;4.60;;;;;;;14.16;100.00;96236.75;5054804;28;20076;-46
2022/12/21 11:34:57;;;;;;;6.05;3.78;;;;;;;14.06;100.00;96231.66;5060388;28;20082;-43
2022/12/21 11:37:45;;;;;;;8.75;4.00;;;;;;;14.20;100.00;96228.25;5055654;28;20080;-43
2022/12/21 11:40:17;;;;;;;7.32;3.30;;;;;;;14.36;100.00;96229.19;5053620;28;21225;-41
2022/12/21 11:42:53;;;;;;;8.38;3.65;;;;;;;14.49;100.00;96226.81;5062686;28;20076;-43
2022/12/21 11:45:23;;;;;;;7.45;4.05;;;;;;;14.23;100.00;96214.66;5056313;28;20107;-45
2022/12/21 11:48:12;;;;;;;13.45;7.60;;;;;;;14.61;100.00;96214.00;5051016;28;20081;-41
2022/12/21 11:50:51;;;;;;;9.75;6.05;;;;;;;14.26;100.00;96210.84;5055288;28;20112;-43
2022/12/21 11:53:45;;;;;;;10.18;5.32;;;;;;;14.26;100.00;96205.53;5050724;28;20077;-48